Time;durP1;ratioP1;P1;durP2;ratioP2;P2;SDS_P1;SDS_P2;PMS_P1;PMS_P2;Temp;Humidity;BMP_temperature;BMP_pressure;BME280_temperature;BME280_humidity;BME280_pressure;Samples;Min_cycle;Max_cycle;Signal;HPM_P1;HPM_P2
2023/08/25 00:00:33;;;;;;;5.82;2.40;;;23.90;72.90;;;;;;5052046;28;20068;-69
2023/08/25 00:03:02;;;;;;;3.83;2.35;;;23.90;72.90;;;;;;5054997;28;20086;-70
2023/08/25 00:05:27;;;;;;;3.55;2.50;;;23.90;72.90;;;;;;5050487;28;20147;-70
2023/08/25 00:07:53;;;;;;;6.07;2.33;;;23.90;73.00;;;;;;5058421;28;20101;-70
2023/08/25 00:10:19;;;;;;;4.32;2.20;;;23.90;72.90;;;;;;5055542;28;20125;-70
2023/08/25 00:12:46;;;;;;;3.75;2.25;;;23.90;72.90;;;;;;5054460;28;20130;-69
2023/08/25 00:15:12;;;;;;;3.35;2.15;;;23.90;72.90;;;;;;5051691;28;20104;-70
2023/08/25 00:17:37;;;;;;;3.33;2.30;;;23.90;72.90;;;;;;5056118;28;20124;-69
2023/08/25 00:20:05;;;;;;;3.92;2.45;;;23.90;72.90;;;;;;5058174;28;20629;-70
2023/08/25 00:22:30;;;;;;;3.67;2.20;;;23.80;72.80;;;;;;5054855;28;20044;-70
2023/08/25 00:24:56;;;;;;;3.05;2.30;;;23.90;72.90;;;;;;5083883;28;20040;-69
2023/08/25 00:27:22;;;;;;;4.45;2.25;;;23.90;72.90;;;;;;5053128;28;20463;-69
2023/08/25 00:29:48;;;;;;;4.25;2.30;;;23.90;72.90;;;;;;5060307;28;20033;-69
2023/08/25 00:32:13;;;;;;;3.08;2.15;;;23.80;72.80;;;;;;5052460;28;20045;-70
2023/08/25 00:34:39;;;;;;;3.60;2.47;;;23.90;72.90;;;;;;5052040;28;20393;-69
2023/08/25 00:37:07;;;;;;;3.92;2.20;;;23.90;72.90;;;;;;5051994;28;20132;-70
2023/08/25 00:39:36;;;;;;;4.35;2.60;;;23.80;72.80;;;;;;5095605;28;20556;-70
2023/08/25 00:42:01;;;;;;;3.60;2.47;;;23.80;72.80;;;;;;5051507;28;20073;-70
2023/08/25 00:44:27;;;;;;;3.58;2.30;;;23.80;72.80;;;;;;5087344;28;20126;-70
2023/08/25 00:46:53;;;;;;;4.05;1.90;;;23.80;72.80;;;;;;5083929;28;20904;-70
2023/08/25 00:49:18;;;;;;;2.67;1.95;;;23.80;72.80;;;;;;5061773;28;20052;-70
2023/08/25 00:51:44;;;;;;;3.45;2.05;;;23.80;72.80;;;;;;5050502;28;20045;-70
2023/08/25 00:54:09;;;;;;;2.88;1.90;;;23.80;72.80;;;;;;5086573;28;20444;-69
2023/08/25 00:56:35;;;;;;;3.03;2.10;;;23.80;72.80;;;;;;5051034;28;20040;-70
2023/08/25 00:59:01;;;;;;;3.20;2.08;;;23.80;72.80;;;;;;5052069;28;20051;-70
2023/08/25 01:01:27;;;;;;;3.30;2.22;;;23.80;72.80;;;;;;5084187;28;20396;-70
2023/08/25 01:03:52;;;;;;;4.13;2.20;;;23.80;72.80;;;;;;5088901;28;20045;-70
2023/08/25 01:06:18;;;;;;;3.38;2.22;;;23.80;72.80;;;;;;5087644;28;20045;-70
2023/08/25 01:08:43;;;;;;;2.83;2.10;;;23.80;72.80;;;;;;5065717;28;20048;-70
2023/08/25 01:11:34;;;;;;;3.17;2.03;;;23.80;72.80;;;;;;5054892;28;20116;-70
2023/08/25 01:14:26;;;;;;;3.65;2.05;;;23.80;72.70;;;;;;5073507;28;20053;-70
2023/08/25 01:17:01;;;;;;;3.38;2.30;;;23.80;72.70;;;;;;5051540;28;20073;-70
2023/08/25 01:19:51;;;;;;;3.70;2.10;;;23.80;72.80;;;;;;5098599;28;20045;-70
2023/08/25 01:22:34;;;;;;;3.50;2.20;;;23.80;72.80;;;;;;5050769;28;20060;-70
2023/08/25 01:25:35;;;;;;;4.05;2.17;;;23.80;72.80;;;;;;5082657;27;20041;-69
2023/08/25 01:28:03;;;;;;;3.72;1.90;;;23.70;72.60;;;;;;5061817;28;20052;-69
2023/08/25 01:30:30;;;;;;;2.85;2.15;;;23.80;72.70;;;;;;5060970;28;20130;-70
2023/08/25 01:32:55;;;;;;;3.78;2.00;;;23.70;72.70;;;;;;5057263;28;20481;-69
2023/08/25 01:35:41;;;;;;;4.38;2.10;;;23.70;72.70;;;;;;5055001;28;20119;-69
2023/08/25 01:38:14;;;;;;;2.38;1.80;;;23.80;72.70;;;;;;5088823;28;20045;-70
2023/08/25 01:40:44;;;;;;;3.00;2.05;;;23.80;72.70;;;;;;5059214;28;20033;-70
2023/08/25 01:43:11;;;;;;;3.90;2.33;;;23.80;72.80;;;;;;5073574;28;20080;-70
2023/08/25 01:45:36;;;;;;;3.75;2.08;;;23.70;72.70;;;;;;5086504;27;20052;-70
2023/08/25 01:48:05;;;;;;;3.35;1.90;;;23.70;72.70;;;;;;5057355;28;20045;-70
2023/08/25 01:50:31;;;;;;;2.65;1.77;;;23.70;72.70;;;;;;5028575;28;20140;-70
2023/08/25 01:52:56;;;;;;;2.85;1.98;;;23.70;72.70;;;;;;5053723;28;20045;-70
2023/08/25 01:55:22;;;;;;;3.08;1.90;;;23.70;72.70;;;;;;5037500;28;20041;-70
2023/08/25 01:57:48;;;;;;;3.25;2.17;;;23.70;72.70;;;;;;5069643;28;20127;-70
2023/08/25 02:00:14;;;;;;;3.50;2.05;;;23.70;72.60;;;;;;5064569;28;20068;-69
2023/08/25 02:02:40;;;;;;;2.95;2.00;;;23.70;72.60;;;;;;5059327;28;20382;-70
2023/08/25 02:05:06;;;;;;;2.70;1.90;;;23.70;72.60;;;;;;5087913;28;20492;-69
2023/08/25 02:07:31;;;;;;;2.75;1.80;;;23.70;72.60;;;;;;5053496;28;20037;-70
2023/08/25 02:09:57;;;;;;;3.30;1.85;;;23.70;72.60;;;;;;5064660;28;20058;-70
2023/08/25 02:12:23;;;;;;;4.05;1.98;;;23.70;72.60;;;;;;5052713;28;20095;-70
2023/08/25 02:14:48;;;;;;;3.00;2.00;;;23.70;72.50;;;;;;5054812;28;20067;-70
2023/08/25 02:17:14;;;;;;;3.45;2.20;;;23.70;72.60;;;;;;5086746;27;20385;-69
2023/08/25 02:19:39;;;;;;;3.47;2.22;;;23.70;72.50;;;;;;5063970;28;20059;-69
2023/08/25 02:22:07;;;;;;;3.63;2.30;;;23.70;72.60;;;;;;5054230;28;20095;-70
2023/08/25 02:24:32;;;;;;;4.40;2.20;;;23.70;72.50;;;;;;5056709;28;20036;-69
2023/08/25 02:26:58;;;;;;;2.95;1.98;;;23.70;72.60;;;;;;5085397;28;20044;-69
2023/08/25 02:29:24;;;;;;;3.00;2.05;;;23.70;72.60;;;;;;5064651;28;20032;-69
2023/08/25 02:31:50;;;;;;;2.65;1.80;;;23.70;72.60;;;;;;5086163;28;20045;-70
2023/08/25 02:34:15;;;;;;;3.33;2.00;;;23.70;72.60;;;;;;5087633;28;20124;-70
2023/08/25 02:36:41;;;;;;;3.45;2.05;;;23.70;72.60;;;;;;5085037;28;20103;-69
2023/08/25 02:39:07;;;;;;;3.63;2.15;;;23.70;72.60;;;;;;5062580;28;20036;-70
2023/08/25 02:41:32;;;;;;;3.13;1.95;;;23.70;72.60;;;;;;5053971;28;20135;-70
2023/08/25 02:43:58;;;;;;;3.03;1.80;;;23.70;72.60;;;;;;5055853;28;20460;-70
2023/08/25 02:46:23;;;;;;;4.60;1.70;;;23.70;72.60;;;;;;5086025;28;20041;-70
2023/08/25 02:48:49;;;;;;;2.45;1.52;;;23.70;72.60;;;;;;5090736;28;20035;-70
2023/08/25 02:51:14;;;;;;;3.15;1.80;;;23.70;72.60;;;;;;5058207;28;20100;-70
2023/08/25 02:53:40;;;;;;;2.63;1.90;;;23.70;72.60;;;;;;5055692;28;20135;-70
2023/08/25 02:56:05;;;;;;;2.88;1.98;;;23.70;72.60;;;;;;5085235;28;20427;-70
2023/08/25 02:58:31;;;;;;;3.13;1.90;;;23.70;72.50;;;;;;5055863;28;20060;-70
2023/08/25 03:00:57;;;;;;;2.60;1.75;;;23.70;72.50;;;;;;5059745;28;20187;-70
2023/08/25 03:03:22;;;;;;;3.25;2.08;;;23.70;72.50;;;;;;5053920;28;20041;-70
2023/08/25 03:05:49;;;;;;;2.65;1.75;;;23.70;72.50;;;;;;5056183;28;20457;-70
2023/08/25 03:08:15;;;;;;;4.43;2.10;;;23.70;72.50;;;;;;5066381;28;20390;-69
2023/08/25 03:10:44;;;;;;;3.80;1.98;;;23.60;72.50;;;;;;5052558;28;20519;-70
2023/08/25 03:13:09;;;;;;;3.13;1.98;;;23.70;72.60;;;;;;5085515;28;20048;-70
2023/08/25 03:15:35;;;;;;;3.30;2.10;;;23.70;72.60;;;;;;5087493;28;20033;-70
2023/08/25 03:18:04;;;;;;;3.80;2.10;;;23.70;72.60;;;;;;5061937;28;20116;-69
2023/08/25 03:20:30;;;;;;;3.05;1.85;;;23.70;72.50;;;;;;5063776;28;20041;-70
2023/08/25 03:22:57;;;;;;;3.40;2.00;;;23.70;72.50;;;;;;5083969;27;20060;-70
2023/08/25 03:25:23;;;;;;;3.97;2.17;;;23.70;72.50;;;;;;5086994;28;20041;-70
2023/08/25 03:27:48;;;;;;;2.42;1.73;;;23.60;72.50;;;;;;5052684;28;20044;-70
2023/08/25 03:30:14;;;;;;;3.17;1.98;;;23.60;72.50;;;;;;5095136;28;20033;-69
2023/08/25 03:32:39;;;;;;;2.90;1.98;;;23.60;72.50;;;;;;5052546;28;20041;-70
2023/08/25 03:35:06;;;;;;;2.95;1.90;;;23.60;72.50;;;;;;5055009;28;20099;-70
2023/08/25 03:37:31;;;;;;;3.55;1.67;;;23.60;72.50;;;;;;5051714;28;20107;-70
2023/08/25 03:39:57;;;;;;;2.85;1.90;;;23.70;72.60;;;;;;5062854;28;20044;-70
2023/08/25 03:42:22;;;;;;;3.05;2.33;;;23.60;72.50;;;;;;5085297;28;20480;-70
2023/08/25 03:44:48;;;;;;;3.67;1.92;;;23.60;72.50;;;;;;5053107;28;20037;-70
2023/08/25 03:47:14;;;;;;;2.97;1.90;;;23.60;72.50;;;;;;5084897;28;20037;-70
2023/08/25 03:49:39;;;;;;;3.90;1.85;;;23.60;72.50;;;;;;5061546;28;20109;-69
2023/08/25 03:52:05;;;;;;;2.53;1.55;;;23.60;72.50;;;;;;5052972;28;20041;-69
2023/08/25 03:54:31;;;;;;;2.92;2.08;;;23.60;72.50;;;;;;5054584;28;20126;-69
2023/08/25 03:56:57;;;;;;;2.65;1.63;;;23.60;72.50;;;;;;5084790;28;20125;-70
2023/08/25 03:59:23;;;;;;;2.47;1.80;;;23.60;72.50;;;;;;5058401;28;20457;-70
2023/08/25 04:01:49;;;;;;;2.90;1.58;;;23.60;72.50;;;;;;5060181;28;20052;-70
2023/08/25 04:04:14;;;;;;;3.90;1.88;;;23.60;72.50;;;;;;5063497;28;20037;-70
2023/08/25 04:06:41;;;;;;;3.17;2.15;;;23.60;72.50;;;;;;5050221;28;20052;-70
2023/08/25 04:09:07;;;;;;;2.40;1.60;;;23.60;72.50;;;;;;5056092;28;20097;-70
2023/08/25 04:11:32;;;;;;;3.47;1.95;;;23.60;72.50;;;;;;5058972;28;20462;-70
2023/08/25 04:13:58;;;;;;;2.90;1.95;;;23.60;72.50;;;;;;5053388;28;20045;-70
2023/08/25 04:16:24;;;;;;;3.67;1.75;;;23.60;72.50;;;;;;5052310;28;20052;-70
2023/08/25 04:18:55;;;;;;;4.38;1.92;;;23.60;72.50;;;;;;5052937;28;20033;-70
2023/08/25 04:21:21;;;;;;;2.55;1.60;;;23.60;72.50;;;;;;5058610;28;20049;-70
2023/08/25 04:23:46;;;;;;;3.60;1.90;;;23.60;72.50;;;;;;5083657;28;20051;-70
2023/08/25 04:26:12;;;;;;;2.45;1.85;;;23.60;72.50;;;;;;5052006;28;20045;-70
2023/08/25 04:28:38;;;;;;;2.92;1.80;;;23.60;72.60;;;;;;5083931;28;20040;-70
2023/08/25 04:31:03;;;;;;;2.03;1.50;;;23.50;72.50;;;;;;5094727;28;20489;-70
2023/08/25 04:33:29;;;;;;;3.70;1.67;;;23.60;72.50;;;;;;5051247;28;20053;-70
2023/08/25 04:35:55;;;;;;;2.60;1.73;;;23.60;72.50;;;;;;5086213;28;20538;-70
2023/08/25 04:38:20;;;;;;;2.47;1.70;;;23.60;72.50;;;;;;5054320;28;20056;-70
2023/08/25 04:40:46;;;;;;;2.65;1.58;;;23.60;72.50;;;;;;5065553;28;20029;-70
2023/08/25 04:43:11;;;;;;;2.90;2.05;;;23.60;72.50;;;;;;5056105;28;20044;-70
2023/08/25 04:45:37;;;;;;;2.47;1.50;;;23.50;72.40;;;;;;5057823;28;20033;-70
2023/08/25 04:48:03;;;;;;;3.17;1.52;;;23.60;72.50;;;;;;5054924;28;20102;-70
2023/08/25 04:50:28;;;;;;;3.30;1.50;;;23.60;72.50;;;;;;5064073;28;20591;-70
2023/08/25 04:52:54;;;;;;;2.70;1.80;;;23.60;72.50;;;;;;5053868;28;20037;-70
2023/08/25 04:55:19;;;;;;;2.72;1.65;;;23.50;72.50;;;;;;5056418;28;20041;-70
2023/08/25 04:57:45;;;;;;;2.58;1.80;;;23.50;72.50;;;;;;5055215;28;20392;-70
2023/08/25 05:00:11;;;;;;;2.25;1.48;;;23.50;72.50;;;;;;5065534;28;20040;-69
2023/08/25 05:02:37;;;;;;;2.63;1.63;;;23.60;72.60;;;;;;5055300;28;20057;-69
2023/08/25 05:05:05;;;;;;;3.08;1.65;;;23.50;72.50;;;;;;5057672;28;20108;-69
2023/08/25 05:07:31;;;;;;;;;;;23.60;72.60;;;;;;5088560;28;20136;-67
2023/08/25 05:09:56;;;;;;;3.65;1.92;;;23.50;72.50;;;;;;5067931;28;20015;-69
2023/08/25 05:12:22;;;;;;;3.60;2.08;;;23.50;72.60;;;;;;5058781;28;20047;-68
2023/08/25 05:14:48;;;;;;;4.90;2.10;;;23.60;72.70;;;;;;5057182;28;20041;-68
2023/08/25 05:17:13;;;;;;;5.70;2.38;;;23.60;72.70;;;;;;5086864;28;20480;-68
2023/08/25 05:19:39;;;;;;;2.53;1.58;;;23.50;72.70;;;;;;5090067;28;20055;-67
2023/08/25 05:22:04;;;;;;;5.07;2.17;;;23.60;72.70;;;;;;5059043;28;20492;-68
2023/08/25 05:24:30;;;;;;;2.33;1.65;;;23.60;72.70;;;;;;5056345;28;20040;-68
2023/08/25 05:26:56;;;;;;;2.83;1.92;;;23.60;72.70;;;;;;5087699;28;20045;-68
2023/08/25 05:29:23;;;;;;;3.22;1.90;;;23.50;72.60;;;;;;5055720;28;20044;-68
2023/08/25 05:31:49;;;;;;;4.15;1.52;;;23.50;72.60;;;;;;5061632;28;20534;-68
2023/08/25 05:34:15;;;;;;;2.85;1.88;;;23.60;72.70;;;;;;5087940;28;20045;-69
2023/08/25 05:36:40;;;;;;;3.80;2.28;;;23.60;72.70;;;;;;5053675;28;20064;-69
2023/08/25 05:39:06;;;;;;;4.43;2.50;;;23.60;72.80;;;;;;5090269;27;20481;-68
2023/08/25 05:41:32;;;;;;;5.78;2.25;;;23.60;72.80;;;;;;5071703;28;20044;-67
2023/08/25 05:43:58;;;;;;;3.55;2.13;;;23.60;72.90;;;;;;5070602;28;20511;-69
2023/08/25 05:46:24;;;;;;;3.63;2.10;;;23.60;72.90;;;;;;5059697;28;20049;-71
2023/08/25 05:48:50;;;;;;;4.38;2.15;;;23.60;73.00;;;;;;5053470;28;20503;-72
2023/08/25 05:51:15;;;;;;;4.95;2.13;;;23.60;73.00;;;;;;5064349;28;20515;-72
2023/08/25 05:53:41;;;;;;;4.63;2.40;;;23.60;73.00;;;;;;5054834;28;20047;-71
2023/08/25 05:56:06;;;;;;;3.60;2.08;;;23.60;73.00;;;;;;5056620;28;20041;-71
2023/08/25 05:58:32;;;;;;;4.55;2.30;;;23.70;73.10;;;;;;5086177;28;20044;-71
2023/08/25 06:00:58;;;;;;;3.80;2.08;;;23.70;73.10;;;;;;5096918;27;20447;-70
2023/08/25 06:03:24;;;;;;;4.03;2.40;;;23.70;73.20;;;;;;5055078;28;20045;-65
2023/08/25 06:05:52;;;;;;;5.05;2.30;;;23.70;73.20;;;;;;5055318;28;20040;-65
2023/08/25 06:08:18;;;;;;;;;;;23.70;73.10;;;;;;5055137;28;20056;-66
2023/08/25 06:10:43;;;;;;;4.95;2.20;;;23.60;73.00;;;;;;5064127;28;19920;-65
2023/08/25 06:13:09;;;;;;;5.18;2.55;;;23.60;73.10;;;;;;5053841;28;20495;-70
2023/08/25 06:15:35;;;;;;;4.25;2.15;;;23.60;73.10;;;;;;5088358;28;20037;-70
2023/08/25 06:18:01;;;;;;;6.45;2.38;;;23.60;73.10;;;;;;5086703;28;20049;-69
2023/08/25 06:20:27;;;;;;;5.38;2.60;;;23.60;73.10;;;;;;5060803;28;20101;-70
2023/08/25 06:22:53;;;;;;;5.85;2.97;;;23.60;73.10;;;;;;5054954;28;20508;-72
2023/08/25 06:25:18;;;;;;;4.20;2.60;;;23.60;73.20;;;;;;5055735;28;20052;-70
2023/08/25 06:27:44;;;;;;;5.35;2.65;;;23.60;73.20;;;;;;5053143;28;20041;-70
2023/08/25 06:30:10;;;;;;;4.03;2.50;;;23.60;73.30;;;;;;5058716;28;20044;-69
2023/08/25 06:32:36;;;;;;;5.93;2.90;;;23.70;73.40;;;;;;5059084;28;20488;-66
2023/08/25 06:35:02;;;;;;;5.40;2.60;;;23.70;73.60;;;;;;5053972;28;20079;-67
2023/08/25 06:37:27;;;;;;;5.28;2.67;;;23.70;73.60;;;;;;5053819;28;20052;-67
2023/08/25 06:39:53;;;;;;;6.32;2.60;;;23.70;73.60;;;;;;5054088;28;20388;-67
2023/08/25 06:42:19;;;;;;;6.50;2.75;;;23.70;73.60;;;;;;5061896;28;20091;-67
2023/08/25 06:44:44;;;;;;;5.00;2.63;;;23.70;73.60;;;;;;5071409;28;20520;-67
2023/08/25 06:47:10;;;;;;;5.70;2.70;;;23.70;73.60;;;;;;5073119;28;20047;-67
2023/08/25 06:49:35;;;;;;;4.93;3.10;;;23.70;73.60;;;;;;5073430;28;20048;-67
2023/08/25 06:52:01;;;;;;;4.88;2.83;;;23.70;73.60;;;;;;5072273;28;20480;-67
2023/08/25 06:54:27;;;;;;;6.10;2.70;;;23.70;73.60;;;;;;5071774;28;20135;-67
2023/08/25 06:56:52;;;;;;;6.70;2.97;;;23.70;73.70;;;;;;5073585;28;20477;-66
2023/08/25 06:59:18;;;;;;;5.18;2.63;;;23.70;73.70;;;;;;5073963;28;20123;-68
2023/08/25 07:01:44;;;;;;;5.97;2.97;;;23.70;73.60;;;;;;5071895;28;20044;-70
2023/08/25 07:04:10;;;;;;;5.50;2.72;;;23.70;73.70;;;;;;5073857;28;20044;-69
2023/08/25 07:06:36;;;;;;;5.47;2.80;;;23.70;73.70;;;;;;5073411;28;20040;-69
2023/08/25 07:09:05;;;;;;;5.40;2.70;;;23.80;73.80;;;;;;5071346;28;20044;-68
2023/08/25 07:11:32;;;;;;;6.45;2.60;;;23.80;73.90;;;;;;5073572;28;20048;-69
2023/08/25 07:13:58;;;;;;;4.15;2.22;;;23.70;73.80;;;;;;5073206;28;20404;-67
2023/08/25 07:16:24;;;;;;;6.05;3.03;;;23.70;73.80;;;;;;5071356;28;20075;-65
2023/08/25 07:18:50;;;;;;;5.82;2.80;;;23.80;73.90;;;;;;5071812;28;20087;-66
2023/08/25 07:21:16;;;;;;;4.45;2.60;;;23.80;73.90;;;;;;5072982;28;20115;-65
2023/08/25 07:23:42;;;;;;;3.38;2.33;;;23.80;73.90;;;;;;5072378;28;20483;-66
2023/08/25 07:26:08;;;;;;;4.45;2.80;;;23.80;73.90;;;;;;5065973;28;20037;-67
2023/08/25 07:28:33;;;;;;;4.50;2.88;;;23.80;73.90;;;;;;5072492;28;20039;-67
2023/08/25 07:30:59;;;;;;;8.20;2.90;;;23.80;73.90;;;;;;5072600;28;20028;-67
2023/08/25 07:33:25;;;;;;;8.13;2.90;;;23.80;74.00;;;;;;5072521;28;20095;-66
2023/08/25 07:35:51;;;;;;;4.93;3.03;;;23.80;74.00;;;;;;5068737;28;20431;-70
2023/08/25 07:38:16;;;;;;;6.45;2.80;;;23.80;74.00;;;;;;5068980;28;20655;-68
2023/08/25 07:40:42;;;;;;;6.45;2.63;;;23.90;74.00;;;;;;5093767;28;20119;-65
2023/08/25 07:43:08;;;;;;;5.88;2.80;;;23.80;74.00;;;;;;5069243;28;20040;-69
2023/08/25 07:45:35;;;;;;;6.25;3.10;;;23.80;74.00;;;;;;5068266;28;20400;-69
2023/08/25 07:48:01;;;;;;;6.22;2.92;;;23.80;73.90;;;;;;5070893;28;20514;-70
2023/08/25 07:50:30;;;;;;;8.35;2.92;;;23.80;73.90;;;;;;5070006;28;20071;-68
2023/08/25 07:52:56;;;;;;;6.50;2.90;;;23.90;73.90;;;;;;5072436;28;20048;-69
2023/08/25 07:55:22;;;;;;;6.75;3.17;;;23.80;73.80;;;;;;5071681;28;20047;-69
2023/08/25 07:57:47;;;;;;;5.20;3.10;;;23.90;73.90;;;;;;5071577;28;20361;-67
2023/08/25 08:00:15;;;;;;;6.20;3.13;;;23.80;73.80;;;;;;5071682;28;20040;-67
2023/08/25 08:02:45;;;;;;;6.88;3.28;;;23.80;73.80;;;;;;5071189;28;20670;-69
2023/08/25 08:05:11;;;;;;;5.80;2.97;;;23.80;73.60;;;;;;5072091;28;20044;-69
2023/08/25 08:07:37;;;;;;;8.88;3.60;;;23.80;73.60;;;;;;5071327;28;20040;-69
2023/08/25 08:10:03;;;;;;;6.97;3.25;;;23.80;73.60;;;;;;5071493;28;20391;-69
2023/08/25 08:12:29;;;;;;;7.10;3.63;;;23.80;73.50;;;;;;5071067;28;20055;-69
2023/08/25 08:14:55;;;;;;;10.70;3.25;;;23.70;73.40;;;;;;5071377;28;20048;-69
2023/08/25 08:17:20;;;;;;;7.32;3.88;;;23.70;73.40;;;;;;5071584;28;20043;-68
2023/08/25 08:19:47;;;;;;;6.72;3.42;;;23.80;73.40;;;;;;5071562;28;20131;-68
2023/08/25 08:22:12;;;;;;;5.20;3.17;;;23.70;73.30;;;;;;5071519;28;20048;-68
2023/08/25 08:24:38;;;;;;;7.07;4.20;;;23.70;73.30;;;;;;5072328;28;20048;-68
2023/08/25 08:27:03;;;;;;;7.15;3.70;;;23.70;73.30;;;;;;5070682;28;20040;-68
2023/08/25 08:29:29;;;;;;;5.95;3.92;;;23.70;73.30;;;;;;5070917;28;20037;-68
2023/08/25 08:31:57;;;;;;;6.35;3.65;;;23.70;73.30;;;;;;5071965;28;20048;-69
2023/08/25 08:34:23;;;;;;;6.88;3.88;;;23.70;73.30;;;;;;5070372;28;20051;-68
2023/08/25 08:36:48;;;;;;;7.03;4.03;;;23.70;73.30;;;;;;5071821;28;20053;-66
2023/08/25 08:39:15;;;;;;;8.65;3.92;;;23.70;73.30;;;;;;5070787;28;20044;-66
2023/08/25 08:41:40;;;;;;;7.22;4.13;;;23.70;73.30;;;;;;5071548;28;20558;-66
2023/08/25 08:44:06;;;;;;;8.18;4.43;;;23.70;73.30;;;;;;5053989;28;20044;-66
2023/08/25 08:46:31;;;;;;;7.45;3.90;;;23.70;73.30;;;;;;5070282;28;20040;-66
2023/08/25 08:48:57;;;;;;;8.88;4.30;;;23.70;73.30;;;;;;5070535;28;20044;-66
2023/08/25 08:51:22;;;;;;;7.78;4.78;;;23.70;73.30;;;;;;5054124;28;20052;-66
2023/08/25 08:53:49;;;;;;;6.85;4.30;;;23.70;73.30;;;;;;5068075;28;20043;-66
2023/08/25 08:56:15;;;;;;;5.80;4.10;;;23.70;73.30;;;;;;5051220;28;20095;-66
2023/08/25 08:58:42;;;;;;;6.32;3.90;;;23.70;73.30;;;;;;5033682;28;20053;-66
2023/08/25 09:01:09;;;;;;;7.57;4.20;;;23.70;73.30;;;;;;5083363;28;20048;-67
2023/08/25 09:03:35;;;;;;;6.82;4.20;;;23.70;73.30;;;;;;5048698;28;20411;-68
2023/08/25 09:06:03;;;;;;;10.43;5.22;;;23.70;73.20;;;;;;5072119;28;20493;-67
2023/08/25 09:08:29;;;;;;;5.63;4.30;;;23.70;73.30;;;;;;5069551;28;20074;-69
2023/08/25 09:10:54;;;;;;;7.82;5.00;;;23.70;73.30;;;;;;5069973;28;20058;-68
2023/08/25 09:13:20;;;;;;;10.07;5.20;;;23.70;73.50;;;;;;5071144;28;20043;-69
2023/08/25 09:15:49;;;;;;;9.25;4.63;;;23.70;73.60;;;;;;5062607;28;20045;-68
2023/08/25 09:18:14;;;;;;;9.85;4.72;;;23.70;73.60;;;;;;5084171;28;20041;-68
2023/08/25 09:20:40;;;;;;;8.48;4.75;;;23.70;73.70;;;;;;5083111;28;20377;-67
2023/08/25 09:23:08;;;;;;;8.25;4.88;;;23.70;73.70;;;;;;5083744;28;20049;-67
2023/08/25 09:25:33;;;;;;;6.88;4.75;;;23.70;73.70;;;;;;5087843;28;20091;-68
2023/08/25 09:28:00;;;;;;;7.65;4.45;;;23.70;73.80;;;;;;5089306;28;20048;-68
2023/08/25 09:30:36;;;;;;;8.23;4.45;;;23.70;73.80;;;;;;5087331;28;20493;-68
2023/08/25 09:33:09;;;;;;;9.23;4.88;;;23.70;73.80;;;;;;5087614;28;20045;-68
2023/08/25 09:35:35;;;;;;;7.18;4.63;;;23.80;73.90;;;;;;5055380;28;20045;-68
2023/08/25 09:38:01;;;;;;;10.45;4.72;;;23.70;73.80;;;;;;5086738;28;20060;-69
2023/08/25 09:40:30;;;;;;;8.52;4.80;;;23.70;73.80;;;;;;5087894;28;20485;-69
2023/08/25 09:43:00;;;;;;;7.30;4.80;;;23.70;73.90;;;;;;5054193;28;20116;-63
2023/08/25 09:45:29;;;;;;;7.80;5.00;;;23.70;73.90;;;;;;5055382;28;20550;-69
2023/08/25 09:48:11;;;;;;;7.53;4.60;;;23.70;74.00;;;;;;5054386;28;20463;-70
2023/08/25 09:50:41;;;;;;;8.43;4.80;;;23.70;74.00;;;;;;5054006;28;20041;-70
2023/08/25 09:53:07;;;;;;;6.78;4.65;;;23.70;74.00;;;;;;5072055;28;20041;-69
2023/08/25 09:55:39;;;;;;;6.22;4.30;;;23.70;74.00;;;;;;5075182;28;20135;-68
2023/08/25 09:58:06;;;;;;;7.40;5.00;;;23.70;74.00;;;;;;5072714;28;20051;-69
2023/08/25 10:00:36;;;;;;;9.77;7.40;;;23.70;74.00;;;;;;5074956;28;20075;-69
2023/08/25 10:03:09;;;;;;;18.25;10.98;;;23.70;74.00;;;;;;5073264;28;20048;-69
2023/08/25 10:05:36;;;;;;;15.68;10.68;;;23.70;74.00;;;;;;5072504;28;20037;-68
2023/08/25 10:08:01;;;;;;;14.52;10.52;;;23.70;74.10;;;;;;5074490;28;20062;-69
2023/08/25 10:10:30;;;;;;;14.07;9.85;;;23.70;74.20;;;;;;5073393;28;20459;-68
2023/08/25 10:12:56;;;;;;;13.85;9.23;;;23.70;74.30;;;;;;5054946;28;20044;-67
2023/08/25 10:15:22;;;;;;;14.95;9.27;;;23.70;74.30;;;;;;5074335;28;20036;-67
2023/08/25 10:17:48;;;;;;;14.02;9.52;;;23.70;74.60;;;;;;5039284;28;20098;-70
2023/08/25 10:20:14;;;;;;;13.90;9.20;;;23.70;74.70;;;;;;5070740;28;20399;-70
2023/08/25 10:22:43;;;;;;;13.60;9.25;;;23.70;74.90;;;;;;5053955;28;20438;-69
2023/08/25 10:25:10;;;;;;;13.48;9.68;;;23.70;75.00;;;;;;5072905;28;20044;-69
2023/08/25 10:27:35;;;;;;;13.60;8.38;;;23.70;75.00;;;;;;5051748;28;20447;-66
2023/08/25 10:30:01;;;;;;;13.40;8.98;;;23.70;75.00;;;;;;5063863;28;20052;-68
2023/08/25 10:32:55;;;;;;;16.08;9.48;;;23.70;75.00;;;;;;5063138;28;20041;-69
2023/08/25 10:35:46;;;;;;;12.80;9.18;;;23.80;75.10;;;;;;5090227;28;20037;-68
2023/08/25 10:38:18;;;;;;;15.68;9.45;;;23.80;75.20;;;;;;5071918;28;20512;-69
2023/08/25 10:40:50;;;;;;;14.73;8.82;;;23.80;75.20;;;;;;5072630;28;20079;-68
2023/08/25 10:43:32;;;;;;;14.90;9.43;;;23.80;75.30;;;;;;5074175;28;20047;-68
2023/08/25 10:46:01;;;;;;;15.90;9.73;;;23.80;75.40;;;;;;5073572;28;20055;-69
2023/08/25 10:48:26;;;;;;;12.85;9.15;;;23.80;75.40;;;;;;5072788;28;20055;-69
2023/08/25 10:50:52;;;;;;;13.30;9.25;;;23.90;75.50;;;;;;5073701;28;20044;-67
2023/08/25 10:53:37;;;;;;;16.27;9.43;;;23.80;75.60;;;;;;5073161;28;20059;-69
2023/08/25 10:56:14;;;;;;;14.80;9.38;;;23.90;75.40;;;;;;5070934;28;20032;-71
2023/08/25 10:58:40;;;;;;;15.23;9.65;;;23.90;75.30;;;;;;5096521;28;20045;-71
2023/08/25 11:01:06;;;;;;;13.77;10.38;;;23.80;75.30;;;;;;5098359;28;20512;-71
2023/08/25 11:04:01;;;;;;;12.70;9.52;;;23.90;75.50;;;;;;5058841;28;20131;-72
2023/08/25 11:06:47;;;;;;;13.63;9.10;;;23.90;75.50;;;;;;5059270;28;20044;-71
2023/08/25 11:09:18;;;;;;;14.52;9.60;;;23.90;75.50;;;;;;5071259;28;20032;-71
2023/08/25 11:11:47;;;;;;;12.85;9.50;;;23.90;75.50;;;;;;5070491;28;20036;-70
2023/08/25 11:14:13;;;;;;;13.45;9.52;;;23.90;75.60;;;;;;5072484;28;20074;-71
2023/08/25 11:16:42;;;;;;;13.30;9.48;;;23.90;75.60;;;;;;5072603;28;20122;-70
2023/08/25 11:19:11;;;;;;;12.60;9.18;;;23.90;75.60;;;;;;5071630;28;20051;-70
2023/08/25 11:21:36;;;;;;;12.18;9.43;;;23.90;75.60;;;;;;5054127;28;20071;-71
2023/08/25 11:24:02;;;;;;;11.38;9.13;;;23.90;75.70;;;;;;5071651;28;20404;-71
2023/08/25 11:26:27;;;;;;;12.55;9.48;;;23.90;75.70;;;;;;5071556;28;20048;-71
2023/08/25 11:28:53;;;;;;;11.63;9.10;;;23.90;75.70;;;;;;5070018;28;20430;-68
2023/08/25 11:31:23;;;;;;;14.38;8.95;;;23.90;75.80;;;;;;5070068;28;20041;-68
2023/08/25 11:33:49;;;;;;;12.02;8.90;;;23.90;75.80;;;;;;5072278;28;20040;-69
2023/08/25 11:36:18;;;;;;;13.73;9.07;;;23.90;75.80;;;;;;5070049;28;20048;-69
2023/08/25 11:38:50;;;;;;;11.25;8.57;;;23.90;75.80;;;;;;5051305;28;20047;-68
2023/08/25 11:41:19;;;;;;;12.02;8.77;;;23.90;75.90;;;;;;5072558;28;20052;-69
2023/08/25 11:43:48;;;;;;;12.23;8.23;;;23.90;75.80;;;;;;5093067;28;20068;-69
2023/08/25 11:46:14;;;;;;;11.13;8.38;;;23.90;75.80;;;;;;5072426;28;20480;-69
2023/08/25 11:48:39;;;;;;;12.68;8.68;;;23.90;75.80;;;;;;5071708;28;20040;-69
2023/08/25 11:51:05;;;;;;;10.25;8.15;;;23.90;75.80;;;;;;5072177;28;20045;-69
2023/08/25 11:53:31;;;;;;;10.98;8.63;;;24.00;75.80;;;;;;5073362;28;20044;-69
2023/08/25 11:56:01;;;;;;;10.63;8.57;;;23.90;75.80;;;;;;5071328;28;20502;-67
2023/08/25 11:58:34;;;;;;;9.73;7.68;;;24.00;75.80;;;;;;5071980;28;20400;-69
2023/08/25 12:01:11;;;;;;;19.90;8.27;;;23.90;75.60;;;;;;5071253;28;20411;-68
2023/08/25 12:03:38;;;;;;;12.38;8.05;;;23.90;75.70;;;;;;5070490;28;20036;-66
2023/08/25 12:06:07;;;;;;;11.05;7.03;;;24.00;75.70;;;;;;5070545;28;20463;-69
2023/08/25 12:08:36;;;;;;;11.55;6.90;;;24.00;75.60;;;;;;5072687;28;20052;-70
2023/08/25 12:11:02;;;;;;;9.98;5.82;;;24.00;75.50;;;;;;5070423;28;20369;-71
2023/08/25 12:13:32;;;;;;;11.57;6.80;;;24.10;75.40;;;;;;5071887;28;20231;-70
2023/08/25 12:15:58;;;;;;;9.57;6.25;;;24.10;75.30;;;;;;5070974;28;20131;-70
2023/08/25 12:18:30;;;;;;;16.13;6.65;;;24.10;75.30;;;;;;5071133;28;20460;-69
2023/08/25 12:20:55;;;;;;;10.02;6.40;;;24.20;75.30;;;;;;5071789;28;20040;-69
2023/08/25 12:23:21;;;;;;;11.75;6.97;;;24.10;75.20;;;;;;5070805;28;20086;-69
2023/08/25 12:25:47;;;;;;;10.80;6.80;;;24.10;75.20;;;;;;5069882;28;20392;-71
2023/08/25 12:28:12;;;;;;;8.55;6.18;;;24.10;75.30;;;;;;5070978;28;20086;-70
2023/08/25 12:30:38;;;;;;;11.35;5.90;;;24.10;75.40;;;;;;5069401;28;20044;-70
2023/08/25 12:33:05;;;;;;;11.20;6.20;;;24.10;75.40;;;;;;5071795;28;20045;-71
2023/08/25 12:35:31;;;;;;;10.80;6.80;;;24.10;75.40;;;;;;5071970;28;20073;-70
2023/08/25 12:37:57;;;;;;;10.80;6.10;;;24.10;75.50;;;;;;5070836;28;20080;-70
2023/08/25 12:40:22;;;;;;;9.95;6.25;;;24.10;75.50;;;;;;5071302;28;20066;-72
2023/08/25 12:42:51;;;;;;;9.52;5.80;;;24.10;75.60;;;;;;5071063;28;20064;-71
2023/08/25 12:45:17;;;;;;;8.55;5.72;;;24.00;75.60;;;;;;5070323;28;20442;-71